sensor_id;sensor_type;location;lat;lon;timestamp;P1;durP1;ratioP1;P2;durP2;ratioP2
10120;SDS011;5100;45.176;5.714;2023-08-06T00:00:42;1.20;;;1.10;;
10120;SDS011;5100;45.176;5.714;2023-08-06T00:03:08;1.87;;;1.00;;
10120;SDS011;5100;45.176;5.714;2023-08-06T00:05:34;1.08;;;1.00;;
10120;SDS011;5100;45.176;5.714;2023-08-06T00:08:00;1.12;;;1.00;;
10120;SDS011;5100;45.176;5.714;2023-08-06T00:10:26;1.17;;;1.17;;
10120;SDS011;5100;45.176;5.714;2023-08-06T00:12:52;1.20;;;1.10;;
10120;SDS011;5100;45.176;5.714;2023-08-06T00:15:18;1.40;;;1.30;;
10120;SDS011;5100;45.176;5.714;2023-08-06T00:17:45;1.02;;;1.02;;
10120;SDS011;5100;45.176;5.714;2023-08-06T00:20:10;1.52;;;1.17;;
10120;SDS011;5100;45.176;5.714;2023-08-06T00:22:37;1.10;;;1.10;;
10120;SDS011;5100;45.176;5.714;2023-08-06T00:25:04;1.73;;;1.20;;
10120;SDS011;5100;45.176;5.714;2023-08-06T00:27:31;2.15;;;1.58;;
10120;SDS011;5100;45.176;5.714;2023-08-06T00:29:57;1.30;;;1.20;;
10120;SDS011;5100;45.176;5.714;2023-08-06T00:32:24;1.20;;;1.10;;
10120;SDS011;5100;45.176;5.714;2023-08-06T00:34:51;1.35;;;1.25;;
10120;SDS011;5100;45.176;5.714;2023-08-06T00:37:17;1.33;;;1.20;;
10120;SDS011;5100;45.176;5.714;2023-08-06T00:39:43;1.42;;;1.33;;
10120;SDS011;5100;45.176;5.714;2023-08-06T00:42:10;2.67;;;1.20;;
10120;SDS011;5100;45.176;5.714;2023-08-06T00:44:37;1.00;;;1.00;;
10120;SDS011;5100;45.176;5.714;2023-08-06T00:47:04;1.60;;;1.33;;
10120;SDS011;5100;45.176;5.714;2023-08-06T00:49:32;0.93;;;0.93;;
10120;SDS011;5100;45.176;5.714;2023-08-06T00:51:59;1.15;;;1.02;;
10120;SDS011;5100;45.176;5.714;2023-08-06T00:54:25;3.67;;;1.25;;
10120;SDS011;5100;45.176;5.714;2023-08-06T00:56:54;1.20;;;1.10;;
10120;SDS011;5100;45.176;5.714;2023-08-06T00:59:20;1.27;;;1.10;;
10120;SDS011;5100;45.176;5.714;2023-08-06T01:01:47;1.25;;;1.15;;
10120;SDS011;5100;45.176;5.714;2023-08-06T01:04:13;1.27;;;1.20;;
10120;SDS011;5100;45.176;5.714;2023-08-06T01:06:42;1.35;;;1.12;;
10120;SDS011;5100;45.176;5.714;2023-08-06T01:12:16;1.50;;;1.35;;
10120;SDS011;5100;45.176;5.714;2023-08-06T01:15:00;2.15;;;1.67;;
10120;SDS011;5100;45.176;5.714;2023-08-06T01:17:36;1.30;;;1.20;;
10120;SDS011;5100;45.176;5.714;2023-08-06T01:20:05;1.30;;;1.20;;
10120;SDS011;5100;45.176;5.714;2023-08-06T01:22:31;1.45;;;1.35;;
10120;SDS011;5100;45.176;5.714;2023-08-06T01:24:57;1.80;;;1.20;;
10120;SDS011;5100;45.176;5.714;2023-08-06T01:27:31;2.33;;;1.30;;
10120;SDS011;5100;45.176;5.714;2023-08-06T01:30:11;1.40;;;1.30;;
10120;SDS011;5100;45.176;5.714;2023-08-06T01:32:42;1.30;;;1.10;;
10120;SDS011;5100;45.176;5.714;2023-08-06T01:35:11;1.62;;;1.20;;
10120;SDS011;5100;45.176;5.714;2023-08-06T01:37:40;1.12;;;1.02;;
10120;SDS011;5100;45.176;5.714;2023-08-06T01:40:10;1.42;;;1.30;;
10120;SDS011;5100;45.176;5.714;2023-08-06T01:42:37;1.48;;;1.37;;
10120;SDS011;5100;45.176;5.714;2023-08-06T01:45:05;3.12;;;1.30;;
10120;SDS011;5100;45.176;5.714;2023-08-06T01:47:34;1.67;;;1.42;;
10120;SDS011;5100;45.176;5.714;2023-08-06T01:50:00;1.33;;;1.23;;
10120;SDS011;5100;45.176;5.714;2023-08-06T01:52:26;1.37;;;1.20;;
10120;SDS011;5100;45.176;5.714;2023-08-06T01:54:53;1.35;;;1.25;;
10120;SDS011;5100;45.176;5.714;2023-08-06T01:57:19;2.65;;;1.70;;
10120;SDS011;5100;45.176;5.714;2023-08-06T01:59:46;1.10;;;1.10;;
10120;SDS011;5100;45.176;5.714;2023-08-06T02:02:12;1.00;;;1.00;;
10120;SDS011;5100;45.176;5.714;2023-08-06T02:04:38;1.30;;;1.15;;
10120;SDS011;5100;45.176;5.714;2023-08-06T02:07:04;1.48;;;1.37;;
10120;SDS011;5100;45.176;5.714;2023-08-06T02:09:30;1.40;;;1.30;;
10120;SDS011;5100;45.176;5.714;2023-08-06T02:11:57;1.50;;;1.40;;
10120;SDS011;5100;45.176;5.714;2023-08-06T02:14:23;1.33;;;1.23;;
10120;SDS011;5100;45.176;5.714;2023-08-06T02:16:50;1.50;;;1.40;;
10120;SDS011;5100;45.176;5.714;2023-08-06T02:19:16;1.20;;;1.10;;
10120;SDS011;5100;45.176;5.714;2023-08-06T02:21:42;1.25;;;1.15;;
10120;SDS011;5100;45.176;5.714;2023-08-06T02:24:08;2.45;;;1.20;;
10120;SDS011;5100;45.176;5.714;2023-08-06T02:26:34;1.40;;;1.30;;
10120;SDS011;5100;45.176;5.714;2023-08-06T02:29:00;1.52;;;1.20;;
10120;SDS011;5100;45.176;5.714;2023-08-06T02:31:26;1.27;;;1.17;;
10120;SDS011;5100;45.176;5.714;2023-08-06T02:33:52;1.00;;;1.00;;
10120;SDS011;5100;45.176;5.714;2023-08-06T02:36:19;2.75;;;1.52;;
10120;SDS011;5100;45.176;5.714;2023-08-06T02:38:45;1.73;;;1.50;;
10120;SDS011;5100;45.176;5.714;2023-08-06T02:41:12;1.40;;;1.30;;
10120;SDS011;5100;45.176;5.714;2023-08-06T02:43:38;1.58;;;1.37;;
10120;SDS011;5100;45.176;5.714;2023-08-06T02:46:04;1.37;;;1.27;;
10120;SDS011;5100;45.176;5.714;2023-08-06T02:48:30;1.50;;;1.40;;
10120;SDS011;5100;45.176;5.714;2023-08-06T02:50:56;2.22;;;1.20;;
10120;SDS011;5100;45.176;5.714;2023-08-06T02:53:25;1.25;;;1.00;;
10120;SDS011;5100;45.176;5.714;2023-08-06T02:55:51;1.20;;;1.10;;
10120;SDS011;5100;45.176;5.714;2023-08-06T02:58:18;1.25;;;1.15;;
10120;SDS011;5100;45.176;5.714;2023-08-06T03:00:59;1.30;;;1.20;;
10120;SDS011;5100;45.176;5.714;2023-08-06T03:03:26;1.37;;;1.10;;
10120;SDS011;5100;45.176;5.714;2023-08-06T03:05:53;1.25;;;1.17;;
10120;SDS011;5100;45.176;5.714;2023-08-06T03:08:21;2.15;;;1.05;;
10120;SDS011;5100;45.176;5.714;2023-08-06T03:10:51;2.42;;;1.30;;
10120;SDS011;5100;45.176;5.714;2023-08-06T03:13:18;1.30;;;1.20;;
10120;SDS011;5100;45.176;5.714;2023-08-06T03:15:54;0.90;;;0.90;;
10120;SDS011;5100;45.176;5.714;2023-08-06T03:18:21;1.05;;;0.80;;
10120;SDS011;5100;45.176;5.714;2023-08-06T03:20:48;1.33;;;1.20;;
10120;SDS011;5100;45.176;5.714;2023-08-06T03:23:15;2.60;;;1.12;;
10120;SDS011;5100;45.176;5.714;2023-08-06T03:25:41;0.93;;;0.80;;
10120;SDS011;5100;45.176;5.714;2023-08-06T03:28:07;1.02;;;1.02;;
10120;SDS011;5100;45.176;5.714;2023-08-06T03:30:33;0.90;;;0.90;;
10120;SDS011;5100;45.176;5.714;2023-08-06T03:33:00;1.02;;;0.98;;
10120;SDS011;5100;45.176;5.714;2023-08-06T03:35:26;1.05;;;0.90;;
10120;SDS011;5100;45.176;5.714;2023-08-06T03:37:52;1.20;;;1.10;;
10120;SDS011;5100;45.176;5.714;2023-08-06T03:40:18;0.82;;;0.82;;
10120;SDS011;5100;45.176;5.714;2023-08-06T03:42:44;0.88;;;0.88;;
10120;SDS011;5100;45.176;5.714;2023-08-06T03:45:10;0.80;;;0.80;;
10120;SDS011;5100;45.176;5.714;2023-08-06T03:47:37;0.88;;;0.88;;
10120;SDS011;5100;45.176;5.714;2023-08-06T03:50:03;0.82;;;0.82;;
10120;SDS011;5100;45.176;5.714;2023-08-06T03:52:29;1.73;;;1.02;;
10120;SDS011;5100;45.176;5.714;2023-08-06T03:54:56;1.17;;;1.02;;
10120;SDS011;5100;45.176;5.714;2023-08-06T03:57:21;0.90;;;0.90;;
10120;SDS011;5100;45.176;5.714;2023-08-06T03:59:48;0.75;;;0.75;;
10120;SDS011;5100;45.176;5.714;2023-08-06T04:02:16;4.62;;;1.35;;
10120;SDS011;5100;45.176;5.714;2023-08-06T04:04:42;1.17;;;0.82;;
10120;SDS011;5100;45.176;5.714;2023-08-06T04:07:08;2.42;;;1.30;;
10120;SDS011;5100;45.176;5.714;2023-08-06T04:09:35;3.55;;;1.40;;
10120;SDS011;5100;45.176;5.714;2023-08-06T04:12:26;2.03;;;1.20;;
10120;SDS011;5100;45.176;5.714;2023-08-06T04:14:53;1.25;;;1.15;;
10120;SDS011;5100;45.176;5.714;2023-08-06T04:17:19;1.35;;;1.25;;
10120;SDS011;5100;45.176;5.714;2023-08-06T04:19:47;4.07;;;1.60;;
10120;SDS011;5100;45.176;5.714;2023-08-06T04:22:17;2.70;;;1.45;;
10120;SDS011;5100;45.176;5.714;2023-08-06T04:24:44;3.33;;;2.08;;
10120;SDS011;5100;45.176;5.714;2023-08-06T04:27:11;1.98;;;1.33;;
10120;SDS011;5100;45.176;5.714;2023-08-06T04:29:38;3.53;;;1.73;;
10120;SDS011;5100;45.176;5.714;2023-08-06T04:32:08;2.65;;;1.48;;
10120;SDS011;5100;45.176;5.714;2023-08-06T04:34:36;2.65;;;1.37;;
10120;SDS011;5100;45.176;5.714;2023-08-06T04:37:03;3.12;;;1.48;;
10120;SDS011;5100;45.176;5.714;2023-08-06T04:39:30;3.15;;;1.50;;
10120;SDS011;5100;45.176;5.714;2023-08-06T04:41:56;3.65;;;1.60;;
10120;SDS011;5100;45.176;5.714;2023-08-06T04:44:26;3.05;;;1.65;;
10120;SDS011;5100;45.176;5.714;2023-08-06T04:46:52;2.47;;;1.08;;
10120;SDS011;5100;45.176;5.714;2023-08-06T04:49:19;2.55;;;1.50;;
10120;SDS011;5100;45.176;5.714;2023-08-06T04:51:45;3.58;;;2.00;;
10120;SDS011;5100;45.176;5.714;2023-08-06T04:54:11;4.18;;;1.80;;
10120;SDS011;5100;45.176;5.714;2023-08-06T04:56:38;4.62;;;1.65;;
10120;SDS011;5100;45.176;5.714;2023-08-06T04:59:03;2.65;;;1.42;;
10120;SDS011;5100;45.176;5.714;2023-08-06T05:01:29;2.22;;;1.70;;
10120;SDS011;5100;45.176;5.714;2023-08-06T05:03:56;5.28;;;2.05;;
10120;SDS011;5100;45.176;5.714;2023-08-06T05:06:21;4.20;;;1.77;;
10120;SDS011;5100;45.176;5.714;2023-08-06T05:08:47;5.57;;;2.17;;
10120;SDS011;5100;45.176;5.714;2023-08-06T05:11:14;1.98;;;1.40;;
10120;SDS011;5100;45.176;5.714;2023-08-06T05:13:39;3.12;;;1.55;;
10120;SDS011;5100;45.176;5.714;2023-08-06T05:16:05;3.83;;;1.37;;
10120;SDS011;5100;45.176;5.714;2023-08-06T05:18:32;5.75;;;2.58;;
10120;SDS011;5100;45.176;5.714;2023-08-06T05:20:59;4.95;;;1.67;;
10120;SDS011;5100;45.176;5.714;2023-08-06T05:23:25;4.40;;;1.60;;
10120;SDS011;5100;45.176;5.714;2023-08-06T05:25:51;2.33;;;1.80;;
10120;SDS011;5100;45.176;5.714;2023-08-06T05:28:17;5.47;;;2.20;;
10120;SDS011;5100;45.176;5.714;2023-08-06T05:30:43;2.90;;;1.65;;
10120;SDS011;5100;45.176;5.714;2023-08-06T05:33:09;5.70;;;1.95;;
10120;SDS011;5100;45.176;5.714;2023-08-06T05:35:35;3.78;;;1.80;;
10120;SDS011;5100;45.176;5.714;2023-08-06T05:38:01;4.03;;;1.83;;
10120;SDS011;5100;45.176;5.714;2023-08-06T05:40:27;4.30;;;1.55;;
10120;SDS011;5100;45.176;5.714;2023-08-06T05:42:54;3.40;;;1.67;;
10120;SDS011;5100;45.176;5.714;2023-08-06T05:45:20;2.55;;;1.55;;
10120;SDS011;5100;45.176;5.714;2023-08-06T05:47:49;3.35;;;1.73;;
10120;SDS011;5100;45.176;5.714;2023-08-06T05:50:15;3.90;;;1.73;;
10120;SDS011;5100;45.176;5.714;2023-08-06T05:52:41;5.15;;;1.80;;
10120;SDS011;5100;45.176;5.714;2023-08-06T05:55:08;3.37;;;1.75;;
10120;SDS011;5100;45.176;5.714;2023-08-06T05:57:34;6.35;;;1.70;;
10120;SDS011;5100;45.176;5.714;2023-08-06T06:00:01;5.03;;;1.92;;
10120;SDS011;5100;45.176;5.714;2023-08-06T06:02:37;3.58;;;1.87;;
10120;SDS011;5100;45.176;5.714;2023-08-06T06:05:04;4.32;;;1.80;;
10120;SDS011;5100;45.176;5.714;2023-08-06T06:07:30;4.85;;;2.00;;
10120;SDS011;5100;45.176;5.714;2023-08-06T06:09:56;4.95;;;1.85;;
10120;SDS011;5100;45.176;5.714;2023-08-06T06:12:22;7.18;;;1.77;;
10120;SDS011;5100;45.176;5.714;2023-08-06T06:14:48;4.50;;;1.83;;
10120;SDS011;5100;45.176;5.714;2023-08-06T06:17:14;5.03;;;1.50;;
10120;SDS011;5100;45.176;5.714;2023-08-06T06:19:40;3.95;;;1.90;;
10120;SDS011;5100;45.176;5.714;2023-08-06T06:22:06;4.62;;;2.40;;
10120;SDS011;5100;45.176;5.714;2023-08-06T06:24:32;3.85;;;1.60;;
10120;SDS011;5100;45.176;5.714;2023-08-06T06:26:58;4.53;;;1.75;;
10120;SDS011;5100;45.176;5.714;2023-08-06T06:29:24;5.65;;;2.30;;
10120;SDS011;5100;45.176;5.714;2023-08-06T06:31:50;4.50;;;2.12;;
10120;SDS011;5100;45.176;5.714;2023-08-06T06:34:16;4.78;;;2.08;;
10120;SDS011;5100;45.176;5.714;2023-08-06T06:36:42;4.85;;;1.60;;
10120;SDS011;5100;45.176;5.714;2023-08-06T06:39:08;3.92;;;1.92;;
10120;SDS011;5100;45.176;5.714;2023-08-06T06:41:34;5.15;;;1.85;;
10120;SDS011;5100;45.176;5.714;2023-08-06T06:44:03;5.53;;;2.20;;
10120;SDS011;5100;45.176;5.714;2023-08-06T06:46:29;6.20;;;2.10;;
10120;SDS011;5100;45.176;5.714;2023-08-06T06:48:55;3.50;;;1.80;;
10120;SDS011;5100;45.176;5.714;2023-08-06T06:51:21;5.20;;;2.03;;
10120;SDS011;5100;45.176;5.714;2023-08-06T06:53:47;4.55;;;2.17;;
10120;SDS011;5100;45.176;5.714;2023-08-06T06:56:13;6.47;;;1.83;;
10120;SDS011;5100;45.176;5.714;2023-08-06T06:58:39;2.42;;;1.60;;
10120;SDS011;5100;45.176;5.714;2023-08-06T07:01:06;4.28;;;1.92;;
10120;SDS011;5100;45.176;5.714;2023-08-06T07:03:33;4.72;;;1.85;;
10120;SDS011;5100;45.176;5.714;2023-08-06T07:05:59;3.40;;;1.62;;
10120;SDS011;5100;45.176;5.714;2023-08-06T07:08:25;4.70;;;1.50;;
10120;SDS011;5100;45.176;5.714;2023-08-06T07:10:59;2.50;;;1.12;;
10120;SDS011;5100;45.176;5.714;2023-08-06T07:13:29;2.53;;;1.33;;
10120;SDS011;5100;45.176;5.714;2023-08-06T07:15:55;1.90;;;1.40;;
10120;SDS011;5100;45.176;5.714;2023-08-06T07:18:22;2.00;;;1.20;;
10120;SDS011;5100;45.176;5.714;2023-08-06T07:20:51;3.22;;;1.02;;
10120;SDS011;5100;45.176;5.714;2023-08-06T07:23:22;1.98;;;1.23;;
10120;SDS011;5100;45.176;5.714;2023-08-06T07:25:49;3.78;;;1.12;;
10120;SDS011;5100;45.176;5.714;2023-08-06T07:28:16;2.37;;;1.20;;
10120;SDS011;5100;45.176;5.714;2023-08-06T07:30:43;3.58;;;1.52;;
10120;SDS011;5100;45.176;5.714;2023-08-06T07:33:09;1.70;;;0.98;;
10120;SDS011;5100;45.176;5.714;2023-08-06T07:35:35;3.62;;;1.25;;
10120;SDS011;5100;45.176;5.714;2023-08-06T07:38:02;3.37;;;1.37;;
10120;SDS011;5100;45.176;5.714;2023-08-06T07:40:28;2.60;;;1.27;;
10120;SDS011;5100;45.176;5.714;2023-08-06T07:42:54;1.60;;;1.30;;
10120;SDS011;5100;45.176;5.714;2023-08-06T07:45:20;3.33;;;1.30;;
10120;SDS011;5100;45.176;5.714;2023-08-06T07:47:47;2.92;;;1.40;;
10120;SDS011;5100;45.176;5.714;2023-08-06T07:50:13;3.62;;;1.20;;
10120;SDS011;5100;45.176;5.714;2023-08-06T07:52:39;2.78;;;1.25;;
10120;SDS011;5100;45.176;5.714;2023-08-06T07:55:05;3.17;;;1.20;;
10120;SDS011;5100;45.176;5.714;2023-08-06T07:57:32;3.28;;;1.65;;
10120;SDS011;5100;45.176;5.714;2023-08-06T08:00:00;5.15;;;1.42;;
10120;SDS011;5100;45.176;5.714;2023-08-06T08:02:26;3.67;;;1.67;;
10120;SDS011;5100;45.176;5.714;2023-08-06T08:04:53;3.42;;;1.33;;
10120;SDS011;5100;45.176;5.714;2023-08-06T08:07:19;2.70;;;1.48;;
10120;SDS011;5100;45.176;5.714;2023-08-06T08:09:46;3.95;;;1.80;;
10120;SDS011;5100;45.176;5.714;2023-08-06T08:12:13;3.50;;;1.50;;
10120;SDS011;5100;45.176;5.714;2023-08-06T08:14:39;3.83;;;1.35;;
10120;SDS011;5100;45.176;5.714;2023-08-06T08:17:06;3.25;;;1.20;;
10120;SDS011;5100;45.176;5.714;2023-08-06T08:19:32;3.35;;;1.40;;
10120;SDS011;5100;45.176;5.714;2023-08-06T08:21:58;2.67;;;1.23;;
10120;SDS011;5100;45.176;5.714;2023-08-06T08:24:24;2.35;;;1.20;;
10120;SDS011;5100;45.176;5.714;2023-08-06T08:26:51;7.18;;;1.83;;
10120;SDS011;5100;45.176;5.714;2023-08-06T08:29:19;2.28;;;1.27;;
10120;SDS011;5100;45.176;5.714;2023-08-06T08:31:45;3.12;;;1.48;;
10120;SDS011;5100;45.176;5.714;2023-08-06T08:34:13;2.00;;;1.10;;
10120;SDS011;5100;45.176;5.714;2023-08-06T08:36:39;3.05;;;1.15;;
10120;SDS011;5100;45.176;5.714;2023-08-06T08:39:05;2.28;;;1.25;;
10120;SDS011;5100;45.176;5.714;2023-08-06T08:41:32;3.75;;;1.00;;
10120;SDS011;5100;45.176;5.714;2023-08-06T08:43:59;1.90;;;1.23;;
10120;SDS011;5100;45.176;5.714;2023-08-06T08:46:29;2.67;;;1.20;;
10120;SDS011;5100;45.176;5.714;2023-08-06T08:48:58;4.43;;;1.52;;
10120;SDS011;5100;45.176;5.714;2023-08-06T08:51:25;1.80;;;1.30;;
10120;SDS011;5100;45.176;5.714;2023-08-06T08:53:53;3.70;;;1.30;;
10120;SDS011;5100;45.176;5.714;2023-08-06T08:56:23;1.30;;;1.20;;
10120;SDS011;5100;45.176;5.714;2023-08-06T08:58:50;2.03;;;1.17;;
10120;SDS011;5100;45.176;5.714;2023-08-06T09:01:18;2.30;;;1.10;;
10120;SDS011;5100;45.176;5.714;2023-08-06T09:03:46;1.87;;;1.05;;
10120;SDS011;5100;45.176;5.714;2023-08-06T09:06:13;2.22;;;1.17;;
10120;SDS011;5100;45.176;5.714;2023-08-06T09:08:41;2.75;;;1.40;;
10120;SDS011;5100;45.176;5.714;2023-08-06T09:11:14;1.52;;;0.95;;
10120;SDS011;5100;45.176;5.714;2023-08-06T09:13:41;1.95;;;1.10;;
10120;SDS011;5100;45.176;5.714;2023-08-06T09:16:07;2.75;;;1.02;;
10120;SDS011;5100;45.176;5.714;2023-08-06T09:18:33;1.37;;;0.93;;
10120;SDS011;5100;45.176;5.714;2023-08-06T09:20:59;1.12;;;0.90;;
10120;SDS011;5100;45.176;5.714;2023-08-06T09:23:29;1.20;;;1.10;;
10120;SDS011;5100;45.176;5.714;2023-08-06T09:25:56;2.45;;;1.20;;
10120;SDS011;5100;45.176;5.714;2023-08-06T09:28:23;4.22;;;1.27;;
10120;SDS011;5100;45.176;5.714;2023-08-06T09:30:49;1.48;;;1.10;;
10120;SDS011;5100;45.176;5.714;2023-08-06T09:33:22;2.05;;;1.30;;
10120;SDS011;5100;45.176;5.714;2023-08-06T09:35:48;1.02;;;0.90;;
10120;SDS011;5100;45.176;5.714;2023-08-06T09:38:14;2.45;;;1.08;;
10120;SDS011;5100;45.176;5.714;2023-08-06T09:40:40;1.73;;;1.10;;
10120;SDS011;5100;45.176;5.714;2023-08-06T09:43:06;1.10;;;0.95;;
10120;SDS011;5100;45.176;5.714;2023-08-06T09:45:36;1.27;;;1.05;;
10120;SDS011;5100;45.176;5.714;2023-08-06T09:48:04;1.02;;;0.95;;
10120;SDS011;5100;45.176;5.714;2023-08-06T09:50:36;0.82;;;0.70;;
10120;SDS011;5100;45.176;5.714;2023-08-06T09:53:04;1.33;;;1.12;;
10120;SDS011;5100;45.176;5.714;2023-08-06T09:55:31;1.75;;;1.15;;
10120;SDS011;5100;45.176;5.714;2023-08-06T09:57:58;1.20;;;0.80;;
10120;SDS011;5100;45.176;5.714;2023-08-06T10:00:25;1.95;;;0.90;;
10120;SDS011;5100;45.176;5.714;2023-08-06T10:02:54;1.70;;;1.20;;
10120;SDS011;5100;45.176;5.714;2023-08-06T10:05:24;1.05;;;0.75;;
10120;SDS011;5100;45.176;5.714;2023-08-06T10:07:51;1.15;;;0.82;;
10120;SDS011;5100;45.176;5.714;2023-08-06T10:10:19;4.62;;;1.20;;
10120;SDS011;5100;45.176;5.714;2023-08-06T10:12:48;1.25;;;0.80;;
10120;SDS011;5100;45.176;5.714;2023-08-06T10:15:17;1.17;;;1.08;;
10120;SDS011;5100;45.176;5.714;2023-08-06T10:17:50;2.47;;;0.88;;
10120;SDS011;5100;45.176;5.714;2023-08-06T10:20:18;2.30;;;0.93;;
10120;SDS011;5100;45.176;5.714;2023-08-06T10:22:46;0.73;;;0.73;;
10120;SDS011;5100;45.176;5.714;2023-08-06T10:25:32;1.48;;;1.05;;
10120;SDS011;5100;45.176;5.714;2023-08-06T10:27:59;2.65;;;1.12;;
10120;SDS011;5100;45.176;5.714;2023-08-06T10:30:27;1.23;;;0.90;;
10120;SDS011;5100;45.176;5.714;2023-08-06T10:33:00;1.10;;;0.70;;
10120;SDS011;5100;45.176;5.714;2023-08-06T10:37:58;0.60;;;0.60;;
10120;SDS011;5100;45.176;5.714;2023-08-06T10:40:28;0.75;;;0.75;;
10120;SDS011;5100;45.176;5.714;2023-08-06T10:42:58;0.60;;;0.60;;
10120;SDS011;5100;45.176;5.714;2023-08-06T10:45:28;0.75;;;0.75;;
10120;SDS011;5100;45.176;5.714;2023-08-06T10:47:55;0.88;;;0.82;;
10120;SDS011;5100;45.176;5.714;2023-08-06T10:50:25;0.60;;;0.60;;
10120;SDS011;5100;45.176;5.714;2023-08-06T10:52:52;0.80;;;0.80;;
10120;SDS011;5100;45.176;5.714;2023-08-06T10:55:24;0.82;;;0.82;;
10120;SDS011;5100;45.176;5.714;2023-08-06T10:57:52;0.62;;;0.62;;
10120;SDS011;5100;45.176;5.714;2023-08-06T11:00:18;0.60;;;0.60;;
10120;SDS011;5100;45.176;5.714;2023-08-06T11:02:48;2.47;;;1.35;;
10120;SDS011;5100;45.176;5.714;2023-08-06T11:05:15;0.80;;;0.80;;
10120;SDS011;5100;45.176;5.714;2023-08-06T11:07:42;0.70;;;0.70;;
10120;SDS011;5100;45.176;5.714;2023-08-06T11:10:09;0.80;;;0.70;;
10120;SDS011;5100;45.176;5.714;2023-08-06T11:12:36;0.90;;;0.70;;
10120;SDS011;5100;45.176;5.714;2023-08-06T11:15:03;1.87;;;0.60;;
10120;SDS011;5100;45.176;5.714;2023-08-06T11:17:30;0.80;;;0.80;;
10120;SDS011;5100;45.176;5.714;2023-08-06T11:20:04;0.75;;;0.75;;
10120;SDS011;5100;45.176;5.714;2023-08-06T11:22:30;0.60;;;0.60;;
10120;SDS011;5100;45.176;5.714;2023-08-06T11:24:57;2.30;;;0.73;;
10120;SDS011;5100;45.176;5.714;2023-08-06T11:27:25;0.68;;;0.68;;
10120;SDS011;5100;45.176;5.714;2023-08-06T11:29:52;1.20;;;0.80;;
10120;SDS011;5100;45.176;5.714;2023-08-06T11:32:18;0.60;;;0.60;;
10120;SDS011;5100;45.176;5.714;2023-08-06T11:34:44;0.80;;;0.80;;
10120;SDS011;5100;45.176;5.714;2023-08-06T11:37:10;1.02;;;1.02;;
10120;SDS011;5100;45.176;5.714;2023-08-06T11:42:11;0.75;;;0.75;;
10120;SDS011;5100;45.176;5.714;2023-08-06T11:44:37;0.70;;;0.70;;
10120;SDS011;5100;45.176;5.714;2023-08-06T11:47:03;0.70;;;0.70;;
10120;SDS011;5100;45.176;5.714;2023-08-06T11:49:41;0.60;;;0.60;;
10120;SDS011;5100;45.176;5.714;2023-08-06T11:52:25;1.25;;;0.80;;
10120;SDS011;5100;45.176;5.714;2023-08-06T11:57:33;0.85;;;0.73;;
10120;SDS011;5100;45.176;5.714;2023-08-06T12:00:07;0.80;;;0.80;;
10120;SDS011;5100;45.176;5.714;2023-08-06T12:02:41;1.12;;;0.80;;
10120;SDS011;5100;45.176;5.714;2023-08-06T12:05:14;0.90;;;0.90;;
10120;SDS011;5100;45.176;5.714;2023-08-06T12:07:41;0.73;;;0.65;;
10120;SDS011;5100;45.176;5.714;2023-08-06T12:10:09;1.17;;;0.80;;
10120;SDS011;5100;45.176;5.714;2023-08-06T12:12:36;1.75;;;0.73;;
10120;SDS011;5100;45.176;5.714;2023-08-06T12:15:03;0.95;;;0.82;;
10120;SDS011;5100;45.176;5.714;2023-08-06T12:17:30;0.70;;;0.70;;
10120;SDS011;5100;45.176;5.714;2023-08-06T12:19:56;1.30;;;0.90;;
10120;SDS011;5100;45.176;5.714;2023-08-06T12:22:22;0.82;;;0.70;;
10120;SDS011;5100;45.176;5.714;2023-08-06T12:24:48;0.70;;;0.70;;
10120;SDS011;5100;45.176;5.714;2023-08-06T12:27:14;1.10;;;0.70;;
10120;SDS011;5100;45.176;5.714;2023-08-06T12:29:44;0.47;;;0.47;;
10120;SDS011;5100;45.176;5.714;2023-08-06T12:32:12;0.73;;;0.73;;
10120;SDS011;5100;45.176;5.714;2023-08-06T12:34:38;1.23;;;0.70;;
10120;SDS011;5100;45.176;5.714;2023-08-06T12:37:05;0.75;;;0.75;;
10120;SDS011;5100;45.176;5.714;2023-08-06T12:39:33;0.60;;;0.60;;
10120;SDS011;5100;45.176;5.714;2023-08-06T12:42:00;1.35;;;0.80;;
10120;SDS011;5100;45.176;5.714;2023-08-06T12:44:26;0.60;;;0.60;;
10120;SDS011;5100;45.176;5.714;2023-08-06T12:46:53;1.05;;;0.80;;
10120;SDS011;5100;45.176;5.714;2023-08-06T12:49:19;1.58;;;0.95;;
10120;SDS011;5100;45.176;5.714;2023-08-06T12:51:50;0.57;;;0.57;;
10120;SDS011;5100;45.176;5.714;2023-08-06T12:54:17;1.35;;;0.70;;
10120;SDS011;5100;45.176;5.714;2023-08-06T12:56:44;0.50;;;0.50;;
10120;SDS011;5100;45.176;5.714;2023-08-06T12:59:10;0.60;;;0.60;;
10120;SDS011;5100;45.176;5.714;2023-08-06T13:01:37;0.50;;;0.50;;
10120;SDS011;5100;45.176;5.714;2023-08-06T13:04:03;6.43;;;1.00;;
10120;SDS011;5100;45.176;5.714;2023-08-06T13:06:29;0.60;;;0.60;;
10120;SDS011;5100;45.176;5.714;2023-08-06T13:08:58;0.62;;;0.62;;
10120;SDS011;5100;45.176;5.714;2023-08-06T13:11:24;0.60;;;0.60;;
10120;SDS011;5100;45.176;5.714;2023-08-06T13:13:50;0.82;;;0.80;;
10120;SDS011;5100;45.176;5.714;2023-08-06T13:16:16;0.52;;;0.50;;
10120;SDS011;5100;45.176;5.714;2023-08-06T13:18:42;0.80;;;0.80;;
10120;SDS011;5100;45.176;5.714;2023-08-06T13:21:09;0.73;;;0.73;;
10120;SDS011;5100;45.176;5.714;2023-08-06T13:23:35;0.73;;;0.73;;
10120;SDS011;5100;45.176;5.714;2023-08-06T13:26:01;1.17;;;0.85;;
10120;SDS011;5100;45.176;5.714;2023-08-06T13:28:27;0.50;;;0.50;;
10120;SDS011;5100;45.176;5.714;2023-08-06T13:30:53;1.58;;;0.80;;
10120;SDS011;5100;45.176;5.714;2023-08-06T13:33:19;0.90;;;0.90;;
10120;SDS011;5100;45.176;5.714;2023-08-06T13:35:45;2.20;;;0.90;;
10120;SDS011;5100;45.176;5.714;2023-08-06T13:38:11;0.80;;;0.80;;
10120;SDS011;5100;45.176;5.714;2023-08-06T13:40:37;1.80;;;0.95;;
10120;SDS011;5100;45.176;5.714;2023-08-06T13:43:03;0.82;;;0.82;;
10120;SDS011;5100;45.176;5.714;2023-08-06T13:45:30;1.45;;;0.80;;
10120;SDS011;5100;45.176;5.714;2023-08-06T13:47:56;1.67;;;0.88;;
10120;SDS011;5100;45.176;5.714;2023-08-06T13:50:22;1.80;;;0.88;;
10120;SDS011;5100;45.176;5.714;2023-08-06T13:52:51;2.12;;;0.80;;
10120;SDS011;5100;45.176;5.714;2023-08-06T13:55:18;0.85;;;0.85;;
10120;SDS011;5100;45.176;5.714;2023-08-06T13:57:45;1.20;;;0.90;;
10120;SDS011;5100;45.176;5.714;2023-08-06T14:00:11;0.77;;;0.77;;
10120;SDS011;5100;45.176;5.714;2023-08-06T14:02:37;0.68;;;0.68;;
10120;SDS011;5100;45.176;5.714;2023-08-06T14:05:04;1.08;;;0.98;;
10120;SDS011;5100;45.176;5.714;2023-08-06T14:07:30;1.58;;;0.90;;
10120;SDS011;5100;45.176;5.714;2023-08-06T14:09:56;0.98;;;0.90;;
10120;SDS011;5100;45.176;5.714;2023-08-06T14:12:23;1.35;;;0.77;;
10120;SDS011;5100;45.176;5.714;2023-08-06T14:14:49;1.10;;;1.00;;
10120;SDS011;5100;45.176;5.714;2023-08-06T14:17:15;0.68;;;0.68;;
10120;SDS011;5100;45.176;5.714;2023-08-06T14:19:42;0.75;;;0.75;;
10120;SDS011;5100;45.176;5.714;2023-08-06T14:22:08;2.33;;;0.90;;
10120;SDS011;5100;45.176;5.714;2023-08-06T14:24:33;1.50;;;1.08;;
10120;SDS011;5100;45.176;5.714;2023-08-06T14:27:00;1.10;;;0.85;;
10120;SDS011;5100;45.176;5.714;2023-08-06T14:29:26;0.75;;;0.75;;
10120;SDS011;5100;45.176;5.714;2023-08-06T14:31:52;0.93;;;0.80;;
10120;SDS011;5100;45.176;5.714;2023-08-06T14:34:18;1.25;;;0.75;;
10120;SDS011;5100;45.176;5.714;2023-08-06T14:36:44;0.77;;;0.77;;
10120;SDS011;5100;45.176;5.714;2023-08-06T14:39:10;1.45;;;0.80;;
10120;SDS011;5100;45.176;5.714;2023-08-06T14:41:36;0.77;;;0.77;;
10120;SDS011;5100;45.176;5.714;2023-08-06T14:44:02;1.90;;;1.02;;
10120;SDS011;5100;45.176;5.714;2023-08-06T14:46:28;1.15;;;0.95;;
10120;SDS011;5100;45.176;5.714;2023-08-06T14:48:55;1.17;;;1.08;;
10120;SDS011;5100;45.176;5.714;2023-08-06T14:51:20;1.23;;;0.93;;
10120;SDS011;5100;45.176;5.714;2023-08-06T14:53:46;0.85;;;0.73;;
10120;SDS011;5100;45.176;5.714;2023-08-06T14:56:13;0.65;;;0.65;;
10120;SDS011;5100;45.176;5.714;2023-08-06T14:58:39;0.70;;;0.70;;
10120;SDS011;5100;45.176;5.714;2023-08-06T15:01:05;1.55;;;0.90;;
10120;SDS011;5100;45.176;5.714;2023-08-06T15:03:31;6.72;;;0.95;;
10120;SDS011;5100;45.176;5.714;2023-08-06T15:05:57;0.80;;;0.80;;
10120;SDS011;5100;45.176;5.714;2023-08-06T15:08:23;0.73;;;0.73;;
10120;SDS011;5100;45.176;5.714;2023-08-06T15:10:49;1.33;;;0.98;;